createdAt,value
2022-10-17T00:00:01.321Z,23.3
2022-10-17T00:05:00.124Z,23.3
2022-10-17T00:10:00.160Z,23.3
2022-10-17T00:15:01.016Z,23.3
2022-10-17T00:20:00.153Z,23.3
2022-10-17T00:25:00.107Z,23.3
2022-10-17T00:30:01.064Z,23.3
2022-10-17T00:35:00.103Z,23.3
2022-10-17T00:40:01.441Z,23.3
2022-10-17T00:45:01.448Z,23.2
2022-10-17T00:55:01.029Z,23.1
2022-10-17T01:00:01.070Z,23.1
2022-10-17T01:05:00.946Z,23.0
2022-10-17T01:10:01.455Z,23.0
2022-10-17T01:15:00.104Z,23.0
2022-10-17T01:20:00.146Z,23.0
2022-10-17T01:25:00.085Z,22.9
2022-10-17T01:30:01.366Z,22.9
2022-10-17T01:35:00.112Z,22.9
2022-10-17T01:40:00.166Z,22.9
2022-10-17T01:45:00.095Z,22.9
2022-10-17T01:50:01.274Z,22.8
2022-10-17T01:55:00.109Z,22.8
2022-10-17T02:00:01.205Z,22.8
2022-10-17T02:10:01.191Z,22.7
2022-10-17T02:15:00.116Z,22.8
2022-10-17T02:20:00.185Z,22.8
2022-10-17T02:25:00.097Z,22.7
2022-10-17T02:30:00.139Z,22.7
2022-10-17T02:35:01.267Z,22.7
2022-10-17T02:40:01.245Z,22.7
2022-10-17T02:45:00.135Z,22.7
2022-10-17T02:50:00.992Z,22.7
2022-10-17T02:55:00.117Z,22.7
2022-10-17T03:00:01.127Z,22.7
2022-10-17T03:05:00.097Z,22.6
2022-10-17T03:10:00.119Z,22.6
2022-10-17T03:15:01.041Z,22.7
2022-10-17T03:20:00.147Z,22.7
2022-10-17T03:25:00.102Z,22.7
2022-10-17T03:30:00.145Z,22.6
2022-10-17T03:35:00.120Z,22.7
2022-10-17T03:40:00.986Z,22.6
2022-10-17T03:45:01.486Z,22.6
2022-10-17T03:50:00.144Z,22.6
2022-10-17T03:55:00.088Z,22.6
2022-10-17T04:00:01.065Z,22.6
2022-10-17T04:05:00.095Z,22.6
2022-10-17T04:10:01.184Z,22.6
2022-10-17T04:15:01.239Z,22.6
2022-10-17T04:20:01.241Z,22.6
2022-10-17T04:25:00.089Z,22.6
2022-10-17T04:30:00.147Z,22.6
2022-10-17T04:35:01.249Z,22.5
2022-10-17T04:40:01.007Z,22.5
2022-10-17T04:45:01.154Z,22.5
2022-10-17T04:50:00.988Z,22.5
2022-10-17T04:55:00.125Z,22.5
2022-10-17T05:00:00.227Z,22.6
2022-10-17T05:05:01.416Z,22.5
2022-10-17T05:10:01.173Z,22.5
2022-10-17T05:15:01.267Z,22.5
2022-10-17T05:20:00.173Z,22.5
2022-10-17T05:25:02.499Z,22.5
2022-10-17T05:30:00.963Z,22.5
2022-10-17T05:35:00.093Z,22.5
2022-10-17T05:40:00.857Z,22.5
2022-10-17T05:45:00.103Z,22.5
2022-10-17T05:50:01.051Z,22.5
2022-10-17T05:55:00.120Z,22.5
2022-10-17T06:00:00.969Z,22.5
2022-10-17T06:05:00.109Z,22.5
2022-10-17T06:10:01.249Z,22.5
2022-10-17T06:15:00.132Z,22.5
2022-10-17T06:20:02.046Z,22.5
2022-10-17T06:25:01.242Z,22.5
2022-10-17T06:30:01.168Z,22.5
2022-10-17T06:35:01.207Z,22.5
2022-10-17T06:40:01.270Z,22.5
2022-10-17T06:45:00.095Z,22.5
2022-10-17T06:50:00.964Z,22.5
2022-10-17T06:55:01.011Z,22.5
2022-10-17T07:00:01.012Z,22.5
2022-10-17T07:05:01.112Z,22.5
2022-10-17T07:10:01.272Z,22.5
2022-10-17T07:15:00.089Z,22.5
2022-10-17T07:20:00.152Z,22.6
2022-10-17T07:25:00.143Z,22.6
2022-10-17T07:30:01.298Z,22.6
2022-10-17T07:35:00.086Z,22.7
2022-10-17T07:40:01.060Z,22.7
2022-10-17T07:45:01.267Z,22.7
2022-10-17T07:50:01.253Z,22.8
2022-10-17T07:55:00.103Z,22.8
2022-10-17T08:00:01.329Z,22.8
2022-10-17T08:05:01.246Z,22.8
2022-10-17T08:10:01.339Z,22.8
2022-10-17T08:15:01.198Z,22.9
2022-10-17T08:20:01.020Z,22.9
2022-10-17T08:25:00.110Z,22.9
2022-10-17T08:30:00.103Z,22.9
2022-10-17T08:35:01.076Z,22.9
2022-10-17T08:40:01.295Z,22.9
2022-10-17T08:45:01.515Z,22.9
2022-10-17T08:50:03.225Z,22.9
2022-10-17T08:55:02.969Z,22.9
2022-10-17T09:00:00.176Z,23.0
2022-10-17T09:05:00.141Z,23.0
2022-10-17T09:10:01.308Z,23.0
2022-10-17T09:15:01.047Z,23.0
2022-10-17T09:20:00.181Z,23.0
2022-10-17T09:25:00.113Z,23.0
2022-10-17T09:30:01.254Z,23.0
2022-10-17T09:35:00.126Z,23.0
2022-10-17T09:40:01.014Z,23.0
2022-10-17T09:45:00.102Z,23.0
2022-10-17T09:50:01.254Z,23.0
2022-10-17T09:55:00.106Z,23.0
2022-10-17T10:00:00.278Z,23.0
2022-10-17T10:05:05.334Z,23.0
2022-10-17T10:10:01.050Z,23.0
2022-10-17T10:15:00.088Z,23.0
2022-10-17T10:20:01.275Z,23.0
2022-10-17T10:25:01.552Z,23.0
2022-10-17T10:30:01.307Z,23.1
2022-10-17T10:35:00.121Z,23.0
2022-10-17T10:40:02.778Z,23.0
2022-10-17T10:45:00.135Z,23.1
2022-10-17T10:50:00.992Z,23.1
2022-10-17T10:55:01.215Z,23.1
2022-10-17T11:00:02.459Z,23.1
2022-10-17T11:05:00.119Z,23.1
2022-10-17T11:10:01.256Z,23.1
2022-10-17T11:15:01.034Z,23.1
2022-10-17T11:20:00.192Z,23.1
2022-10-17T11:25:01.061Z,23.2
2022-10-17T11:30:01.250Z,23.1
2022-10-17T11:35:00.126Z,23.2
2022-10-17T11:40:01.061Z,23.2
2022-10-17T11:45:01.520Z,23.2
2022-10-17T11:55:02.508Z,23.2
2022-10-17T12:00:01.048Z,23.3
2022-10-17T12:05:01.482Z,23.3
2022-10-17T12:10:01.335Z,23.3
2022-10-17T12:15:01.425Z,23.3
2022-10-17T12:20:01.029Z,23.3
2022-10-17T12:25:01.488Z,23.4
2022-10-17T12:30:03.745Z,23.4
2022-10-17T12:35:01.123Z,23.4
2022-10-17T12:40:01.246Z,23.4
2022-10-17T12:45:00.101Z,23.4
2022-10-17T12:50:00.149Z,23.5
2022-10-17T12:55:15.213Z,23.5
2022-10-17T13:00:01.567Z,23.5
2022-10-17T13:05:01.664Z,23.5
2022-10-17T13:10:02.603Z,23.5
2022-10-17T13:15:01.535Z,23.5
2022-10-17T13:20:00.169Z,23.5
2022-10-17T13:25:00.118Z,23.5
2022-10-17T13:30:00.150Z,23.5
2022-10-17T13:35:01.545Z,23.5
2022-10-17T13:40:07.304Z,23.5
2022-10-17T13:45:02.141Z,23.6
2022-10-17T13:50:01.397Z,23.6
2022-10-17T13:55:00.112Z,23.6
2022-10-17T14:00:06.045Z,23.6
2022-10-17T14:10:01.327Z,23.7
2022-10-17T14:15:10.696Z,23.7
2022-10-17T14:20:16.318Z,23.7
2022-10-17T14:25:02.844Z,23.8
2022-10-17T14:30:02.805Z,23.8
2022-10-17T14:35:19.111Z,23.8
2022-10-17T14:40:01.281Z,23.8
2022-10-17T14:45:00.105Z,23.8
2022-10-17T14:50:01.740Z,23.9
2022-10-17T14:55:00.121Z,23.9
2022-10-17T15:00:01.839Z,23.9
2022-10-17T15:05:01.483Z,23.8
2022-10-17T15:10:00.130Z,23.9
2022-10-17T15:15:01.609Z,23.9
2022-10-17T15:20:01.357Z,23.9
2022-10-17T15:25:01.341Z,23.9
2022-10-17T15:30:01.009Z,23.9
2022-10-17T15:35:01.092Z,23.9
2022-10-17T15:40:00.141Z,23.9
2022-10-17T15:45:00.160Z,23.9
2022-10-17T15:50:02.032Z,23.9
2022-10-17T15:55:04.400Z,23.9
2022-10-17T16:00:01.489Z,23.8
2022-10-17T16:05:01.255Z,23.8
2022-10-17T16:10:02.338Z,23.8
2022-10-17T16:15:01.267Z,23.9
2022-10-17T16:20:01.719Z,23.8
2022-10-17T16:25:01.474Z,23.8
2022-10-17T16:30:00.125Z,23.8
2022-10-17T16:35:01.579Z,23.8
2022-10-17T16:40:00.172Z,23.8
2022-10-17T16:45:00.118Z,23.8
2022-10-17T16:50:01.021Z,23.8
2022-10-17T16:55:00.140Z,23.8
2022-10-17T17:00:01.425Z,23.8
2022-10-17T17:05:00.124Z,23.8
2022-10-17T17:10:02.006Z,23.8
2022-10-17T17:15:00.106Z,23.8
2022-10-17T17:20:01.094Z,23.8
2022-10-17T17:25:01.316Z,23.8
2022-10-17T17:30:01.366Z,23.8
2022-10-17T17:35:00.116Z,23.8
2022-10-17T17:40:01.656Z,23.9
2022-10-17T17:45:00.122Z,23.8
2022-10-17T17:50:03.012Z,23.8
2022-10-17T17:55:01.008Z,23.8
2022-10-17T18:00:01.117Z,23.8
2022-10-17T18:05:00.137Z,23.8
2022-10-17T18:10:01.341Z,23.8
2022-10-17T18:15:00.119Z,23.8
2022-10-17T18:20:01.315Z,23.8
2022-10-17T18:25:02.410Z,23.8
2022-10-17T18:30:00.146Z,23.8
2022-10-17T18:35:01.133Z,23.7
2022-10-17T18:40:01.737Z,23.7
2022-10-17T18:45:00.112Z,23.6
2022-10-17T18:50:01.425Z,23.6
2022-10-17T18:55:01.539Z,23.6
2022-10-17T19:00:01.011Z,23.6
2022-10-17T19:05:00.124Z,23.6
2022-10-17T19:10:01.429Z,23.5
2022-10-17T19:15:01.037Z,23.6
2022-10-17T19:20:01.101Z,23.6
2022-10-17T19:25:01.455Z,23.6
2022-10-17T19:30:04.565Z,23.6
2022-10-17T19:35:00.090Z,23.6
2022-10-17T19:40:01.006Z,23.7
2022-10-17T19:45:01.226Z,23.7
2022-10-17T19:50:01.186Z,23.7
2022-10-17T19:55:01.009Z,23.7
2022-10-17T20:00:02.728Z,23.7
2022-10-17T20:05:17.382Z,23.7
2022-10-17T20:10:01.059Z,23.7
2022-10-17T20:15:00.101Z,23.7
2022-10-17T20:20:02.313Z,23.7
2022-10-17T20:25:01.279Z,23.7
2022-10-17T20:30:01.010Z,23.7
2022-10-17T20:35:00.137Z,23.7
2022-10-17T20:40:22.985Z,23.7
2022-10-17T20:45:00.132Z,23.7
2022-10-17T20:50:01.060Z,23.6
2022-10-17T20:55:01.259Z,23.7
2022-10-17T21:00:01.625Z,23.7
2022-10-17T21:05:01.299Z,23.7
2022-10-17T21:10:12.309Z,23.7
2022-10-17T21:15:00.958Z,23.7
2022-10-17T21:20:01.282Z,23.6
2022-10-17T21:25:00.989Z,23.7
2022-10-17T21:30:01.205Z,23.7
2022-10-17T21:35:00.970Z,23.7
2022-10-17T21:40:01.063Z,23.7
2022-10-17T21:45:00.105Z,23.7
2022-10-17T21:50:01.242Z,23.7
2022-10-17T21:55:00.105Z,23.7
2022-10-17T22:00:00.175Z,23.7
2022-10-17T22:05:00.107Z,23.7
2022-10-17T22:10:01.051Z,23.7
2022-10-17T22:15:00.182Z,23.7
2022-10-17T22:20:00.984Z,23.7
2022-10-17T22:25:00.103Z,23.7
2022-10-17T22:30:01.070Z,23.7
2022-10-17T22:35:02.667Z,23.7
2022-10-17T22:40:01.007Z,23.7
2022-10-17T22:45:00.093Z,23.7
2022-10-17T22:50:01.049Z,23.7
2022-10-17T22:55:01.419Z,23.6
2022-10-17T23:00:01.041Z,23.7
2022-10-17T23:05:01.821Z,23.7
2022-10-17T23:10:01.507Z,23.7
2022-10-17T23:15:01.458Z,23.6
2022-10-17T23:20:00.115Z,23.7
2022-10-17T23:25:00.989Z,23.7
2022-10-17T23:30:00.125Z,23.6
2022-10-17T23:35:01.620Z,23.6
2022-10-17T23:40:01.226Z,23.6
2022-10-17T23:45:00.100Z,23.6
2022-10-17T23:50:00.117Z,23.6
2022-10-17T23:55:01.287Z,23.6
